createdAt,value
2023-01-29T00:01:43.411Z,81.10
2023-01-29T00:04:45.956Z,80.70
2023-01-29T00:07:48.412Z,81.30
2023-01-29T00:10:50.601Z,81.20
2023-01-29T00:13:53.756Z,81.20
2023-01-29T00:16:55.924Z,81.30
2023-01-29T00:19:58.229Z,81.20
2023-01-29T00:23:00.544Z,81.10
2023-01-29T00:26:02.810Z,81.30
2023-01-29T00:29:06.011Z,81.70
2023-01-29T00:32:08.209Z,81.60
2023-01-29T00:35:10.830Z,82.20
2023-01-29T00:38:13.190Z,82.10
2023-01-29T00:41:34.483Z,81.90
2023-01-29T00:44:55.052Z,82.20
2023-01-29T00:47:57.184Z,82.00
2023-01-29T00:50:59.351Z,82.20
2023-01-29T00:54:01.573Z,82.60
2023-01-29T00:57:04.767Z,82.60
2023-01-29T01:00:12.869Z,82.40
2023-01-29T01:03:15.251Z,82.40
2023-01-29T01:06:17.269Z,82.40
2023-01-29T01:09:37.703Z,82.60
2023-01-29T01:12:40.036Z,82.60
2023-01-29T01:15:42.439Z,82.50
2023-01-29T01:18:44.653Z,82.30
2023-01-29T01:21:48.453Z,83.10
2023-01-29T01:24:50.543Z,83.20
2023-01-29T01:27:54.305Z,83.10
2023-01-29T01:30:56.494Z,83.50
2023-01-29T01:33:58.624Z,83.50
2023-01-29T01:37:04.923Z,83.40
2023-01-29T01:40:18.425Z,83.80
2023-01-29T01:43:20.855Z,83.60
2023-01-29T01:46:35.291Z,84.10
2023-01-29T01:49:37.646Z,84.40
2023-01-29T01:52:45.347Z,84.30
2023-01-29T01:55:54.384Z,84.10
2023-01-29T01:58:59.421Z,84.70
2023-01-29T02:02:20.257Z,84.30
2023-01-29T02:05:40.970Z,84.80
2023-01-29T02:09:14.804Z,85.00
2023-01-29T02:12:18.042Z,84.80
2023-01-29T02:15:20.287Z,84.70
2023-01-29T02:18:22.703Z,85.00
2023-01-29T02:21:30.713Z,85.40
2023-01-29T02:25:13.961Z,84.50
2023-01-29T02:29:20.740Z,84.60
2023-01-29T02:32:54.418Z,85.30
2023-01-29T02:36:01.542Z,85.20
2023-01-29T02:39:27.741Z,85.40
2023-01-29T02:42:44.972Z,85.00
2023-01-29T02:46:01.434Z,85.10
2023-01-29T02:49:22.328Z,85.50
2023-01-29T02:52:44.803Z,85.60
2023-01-29T02:55:53.829Z,85.50
2023-01-29T02:59:05.196Z,85.80
2023-01-29T03:02:13.879Z,85.60
2023-01-29T03:05:23.573Z,85.70
2023-01-29T03:08:50.276Z,85.60
2023-01-29T03:12:02.707Z,85.50
2023-01-29T03:15:25.248Z,85.30
2023-01-29T03:18:32.427Z,85.40
2023-01-29T03:21:55.396Z,85.60
2023-01-29T03:25:18.713Z,85.20
2023-01-29T03:28:42.252Z,85.20
2023-01-29T03:32:03.698Z,85.10
2023-01-29T03:35:08.321Z,84.90
2023-01-29T03:38:12.106Z,85.20
2023-01-29T03:41:29.387Z,85.20
2023-01-29T03:44:57.747Z,85.30
2023-01-29T03:48:13.485Z,85.30
2023-01-29T03:51:17.893Z,85.80
2023-01-29T03:54:30.325Z,85.90
2023-01-29T03:57:38.975Z,85.70
2023-01-29T04:00:52.397Z,85.90
2023-01-29T04:04:14.463Z,85.90
2023-01-29T04:07:24.549Z,85.90
2023-01-29T04:10:29.904Z,85.70
2023-01-29T04:13:33.955Z,85.80
2023-01-29T04:16:41.149Z,86.20
2023-01-29T04:19:44.078Z,85.90
2023-01-29T04:22:48.867Z,86.20
2023-01-29T04:26:21.846Z,86.20
2023-01-29T04:29:39.052Z,86.60
2023-01-29T04:32:59.937Z,86.00
2023-01-29T04:36:30.008Z,86.10
2023-01-29T04:39:33.817Z,86.00
2023-01-29T04:43:09.133Z,86.10
2023-01-29T04:46:17.627Z,86.10
2023-01-29T04:49:34.444Z,86.00
2023-01-29T04:53:04.435Z,86.00
2023-01-29T04:56:25.881Z,86.00
2023-01-29T04:59:45.514Z,85.60
2023-01-29T05:02:48.355Z,85.50
2023-01-29T05:05:52.931Z,85.50
2023-01-29T05:08:56.738Z,85.30
2023-01-29T05:11:59.274Z,85.10
2023-01-29T05:15:03.603Z,85.00
2023-01-29T05:18:09.080Z,84.80
2023-01-29T05:21:11.650Z,84.70
2023-01-29T05:24:24.569Z,84.60
2023-01-29T05:27:53.059Z,84.40
2023-01-29T05:30:57.370Z,84.30
2023-01-29T05:33:59.569Z,84.10
2023-01-29T05:37:01.855Z,84.10
2023-01-29T05:40:04.448Z,84.00
2023-01-29T05:43:14.346Z,83.50
2023-01-29T05:46:16.486Z,83.50
2023-01-29T05:49:20.642Z,83.30
2023-01-29T05:52:22.685Z,83.30
2023-01-29T05:55:24.757Z,83.30
2023-01-29T05:58:26.898Z,82.90
2023-01-29T06:01:29.076Z,82.60
2023-01-29T06:04:31.176Z,82.60
2023-01-29T06:07:33.785Z,82.30
2023-01-29T06:10:35.976Z,82.10
2023-01-29T06:13:38.364Z,82.00
2023-01-29T06:16:41.379Z,81.80
2023-01-29T06:19:43.481Z,81.60
2023-01-29T06:22:45.659Z,81.40
2023-01-29T06:25:47.800Z,81.20
2023-01-29T06:28:50.746Z,81.00
2023-01-29T06:31:52.938Z,80.70
2023-01-29T06:34:55.049Z,80.50
2023-01-29T06:38:00.136Z,80.30
2023-01-29T06:41:12.438Z,80.10
2023-01-29T06:44:14.553Z,80.00
2023-01-29T06:47:16.588Z,79.40
2023-01-29T06:50:18.995Z,79.20
2023-01-29T06:53:22.417Z,78.70
2023-01-29T06:56:25.145Z,77.90
2023-01-29T06:59:27.193Z,77.80
2023-01-29T07:02:29.838Z,77.60
2023-01-29T07:05:32.864Z,76.60
2023-01-29T07:08:39.914Z,76.70
2023-01-29T07:11:43.121Z,76.50
2023-01-29T07:14:45.433Z,76.50
2023-01-29T07:18:02.023Z,76.40
2023-01-29T07:21:07.672Z,76.30
2023-01-29T07:24:09.868Z,76.40
2023-01-29T07:27:12.134Z,76.30
2023-01-29T07:30:14.952Z,76.60
2023-01-29T07:33:17.205Z,76.50
2023-01-29T07:36:19.322Z,76.30
2023-01-29T07:39:21.360Z,76.40
2023-01-29T07:42:23.682Z,76.50
2023-01-29T07:45:25.983Z,76.50
2023-01-29T07:48:28.056Z,76.20
2023-01-29T07:51:31.944Z,76.00
2023-01-29T07:54:34.090Z,76.30
2023-01-29T07:57:36.166Z,76.00
2023-01-29T08:00:38.395Z,76.00
2023-01-29T08:03:40.516Z,76.30
2023-01-29T08:06:42.588Z,76.00
2023-01-29T08:09:44.726Z,74.80
2023-01-29T08:12:46.747Z,73.00
2023-01-29T08:15:48.888Z,68.40
2023-01-29T08:18:50.929Z,65.70
2023-01-29T08:21:52.974Z,62.60
2023-01-29T08:25:06.347Z,62.20
2023-01-29T08:28:11.848Z,60.00
2023-01-29T08:31:18.346Z,58.60
2023-01-29T08:34:20.456Z,56.00
2023-01-29T08:37:22.604Z,55.50
2023-01-29T08:40:25.050Z,54.10
2023-01-29T08:43:27.099Z,53.80
2023-01-29T08:46:29.178Z,51.10
2023-01-29T08:49:31.323Z,51.00
2023-01-29T08:52:33.398Z,49.10
2023-01-29T08:55:37.465Z,48.30
2023-01-29T08:58:39.611Z,49.60
2023-01-29T09:01:41.685Z,45.50
2023-01-29T09:04:43.716Z,46.60
2023-01-29T09:07:45.777Z,44.30
2023-01-29T09:10:48.537Z,43.90
2023-01-29T09:13:50.692Z,43.80
2023-01-29T09:16:52.810Z,43.40
2023-01-29T09:19:54.878Z,44.40
2023-01-29T09:22:59.252Z,43.40
2023-01-29T09:26:01.715Z,44.50
2023-01-29T09:29:03.770Z,41.50
2023-01-29T09:32:07.039Z,43.00
2023-01-29T09:35:09.923Z,42.10
2023-01-29T09:38:13.734Z,41.30
2023-01-29T09:41:40.369Z,39.30
2023-01-29T09:45:04.006Z,39.60
2023-01-29T09:48:12.734Z,40.40
2023-01-29T09:51:41.997Z,37.40
2023-01-29T09:54:52.976Z,37.20
2023-01-29T09:58:13.451Z,36.20
2023-01-29T10:01:23.602Z,34.80
2023-01-29T10:04:25.784Z,36.30
2023-01-29T10:08:05.241Z,38.20
2023-01-29T10:11:21.591Z,38.80
2023-01-29T10:14:57.672Z,38.00
2023-01-29T10:18:11.164Z,36.90
2023-01-29T10:21:35.018Z,36.60
2023-01-29T10:24:56.103Z,36.20
2023-01-29T10:28:00.425Z,36.50
2023-01-29T10:31:21.038Z,35.90
2023-01-29T10:35:09.464Z,36.10
2023-01-29T10:38:31.764Z,36.90
2023-01-29T10:41:54.557Z,38.50
2023-01-29T10:45:21.072Z,39.60
2023-01-29T10:48:50.084Z,36.60
2023-01-29T10:52:20.985Z,39.40
2023-01-29T10:55:41.197Z,39.20
2023-01-29T10:58:52.293Z,39.70
2023-01-29T11:02:03.394Z,39.30
2023-01-29T11:05:19.554Z,38.20
2023-01-29T11:09:00.156Z,36.70
2023-01-29T11:12:05.457Z,38.20
2023-01-29T11:15:18.940Z,40.60
2023-01-29T11:18:21.294Z,40.00
2023-01-29T11:21:24.585Z,38.50
2023-01-29T11:24:27.909Z,38.50
2023-01-29T11:27:35.520Z,37.60
2023-01-29T11:30:42.111Z,38.00
2023-01-29T11:33:45.498Z,38.90
2023-01-29T11:37:04.671Z,37.80
2023-01-29T11:40:27.925Z,38.00
2023-01-29T11:43:31.680Z,41.50
2023-01-29T11:46:33.827Z,39.90
2023-01-29T11:49:36.403Z,39.90
2023-01-29T11:52:43.026Z,40.20
2023-01-29T11:55:50.764Z,42.00
2023-01-29T11:58:57.646Z,41.20
2023-01-29T12:02:19.020Z,42.70
2023-01-29T12:05:25.063Z,44.90
2023-01-29T12:08:33.901Z,48.20
2023-01-29T12:11:36.543Z,50.30
2023-01-29T12:14:38.880Z,54.30
2023-01-29T12:17:42.583Z,56.90
2023-01-29T12:20:55.225Z,60.50
2023-01-29T12:24:20.494Z,62.80
2023-01-29T12:27:35.947Z,65.00
2023-01-29T12:30:59.539Z,65.70
2023-01-29T12:34:23.761Z,66.90
2023-01-29T12:38:01.016Z,67.70
2023-01-29T12:41:28.658Z,69.10
2023-01-29T12:44:42.683Z,69.50
2023-01-29T12:47:49.755Z,70.80
2023-01-29T12:50:54.152Z,71.70
2023-01-29T12:54:04.153Z,72.10
2023-01-29T12:57:34.830Z,72.00
2023-01-29T13:00:40.579Z,71.40
2023-01-29T13:03:56.227Z,71.70
2023-01-29T13:07:29.925Z,73.60
2023-01-29T13:10:38.684Z,74.60
2023-01-29T13:13:58.333Z,77.60
2023-01-29T13:17:18.506Z,75.80
2023-01-29T13:20:30.095Z,75.60
2023-01-29T13:23:37.936Z,74.40
2023-01-29T13:26:44.406Z,75.00
2023-01-29T13:29:46.632Z,75.60
2023-01-29T13:32:54.493Z,74.30
2023-01-29T13:36:00.256Z,75.00
2023-01-29T13:39:16.477Z,73.50
2023-01-29T13:42:43.700Z,74.20
2023-01-29T13:45:46.402Z,73.90
2023-01-29T13:48:51.028Z,73.90
2023-01-29T13:51:53.892Z,73.50
2023-01-29T13:55:04.218Z,73.00
2023-01-29T13:58:13.451Z,72.30
2023-01-29T14:01:15.509Z,73.00
2023-01-29T14:04:25.559Z,73.50
2023-01-29T14:07:45.944Z,72.10
2023-01-29T14:11:13.633Z,72.80
2023-01-29T14:14:47.874Z,71.70
2023-01-29T14:17:59.754Z,72.80
2023-01-29T14:21:06.798Z,72.30
2023-01-29T14:24:24.903Z,72.50
2023-01-29T14:27:27.712Z,72.80
2023-01-29T14:30:32.579Z,72.50
2023-01-29T14:33:41.738Z,72.30
2023-01-29T14:36:47.115Z,72.30
2023-01-29T14:39:55.057Z,73.40
2023-01-29T14:43:19.834Z,71.70
2023-01-29T14:46:34.102Z,72.80
2023-01-29T14:49:58.098Z,71.70
2023-01-29T14:53:18.482Z,71.40
2023-01-29T14:56:29.693Z,72.10
2023-01-29T14:59:46.663Z,72.30
2023-01-29T15:02:59.847Z,72.30
2023-01-29T15:06:06.530Z,72.30
2023-01-29T15:09:14.652Z,71.80
2023-01-29T15:12:39.191Z,71.80
2023-01-29T15:15:55.967Z,71.90
2023-01-29T15:19:13.562Z,72.40
2023-01-29T15:22:18.360Z,72.20
2023-01-29T15:25:21.752Z,72.00
2023-01-29T15:28:24.303Z,72.20
2023-01-29T15:31:27.444Z,71.00
2023-01-29T15:34:29.683Z,71.30
2023-01-29T15:37:36.215Z,71.20
2023-01-29T15:40:38.275Z,70.80
2023-01-29T15:43:45.339Z,70.70
2023-01-29T15:46:52.936Z,70.80
2023-01-29T15:49:57.354Z,70.70
2023-01-29T15:53:04.234Z,71.60
2023-01-29T15:56:11.037Z,70.70
2023-01-29T15:59:24.997Z,70.70
2023-01-29T16:02:30.212Z,71.20
2023-01-29T16:05:33.248Z,71.30
2023-01-29T16:08:36.616Z,71.00
2023-01-29T16:11:39.896Z,70.70
2023-01-29T16:14:42.418Z,70.50
2023-01-29T16:17:46.076Z,70.30
2023-01-29T16:20:52.691Z,69.30
2023-01-29T16:24:02.200Z,69.70
2023-01-29T16:27:12.467Z,69.90
2023-01-29T16:30:16.999Z,69.80
2023-01-29T16:33:19.826Z,70.30
2023-01-29T16:36:28.050Z,70.20
2023-01-29T16:39:34.528Z,70.10
2023-01-29T16:42:37.861Z,69.80
2023-01-29T16:45:39.935Z,70.20
2023-01-29T16:48:42.003Z,69.70
2023-01-29T16:51:44.040Z,69.60
2023-01-29T16:54:46.093Z,69.80
2023-01-29T16:57:54.096Z,70.10
2023-01-29T17:01:03.262Z,68.90
2023-01-29T17:04:10.662Z,69.50
2023-01-29T17:07:18.585Z,69.40
2023-01-29T17:10:22.128Z,69.70
2023-01-29T17:13:45.446Z,69.40
2023-01-29T17:16:53.788Z,69.90
2023-01-29T17:19:55.817Z,70.50
2023-01-29T17:22:57.949Z,70.80
2023-01-29T17:26:00.207Z,70.90
2023-01-29T17:29:02.617Z,70.10
2023-01-29T17:32:05.049Z,70.00
2023-01-29T17:35:07.574Z,70.10
2023-01-29T17:38:24.991Z,70.30
2023-01-29T17:41:31.318Z,70.60
2023-01-29T17:44:34.502Z,70.40
2023-01-29T17:47:36.552Z,71.00
2023-01-29T17:50:41.110Z,71.20
2023-01-29T17:53:46.262Z,71.10
2023-01-29T17:56:49.849Z,71.90
2023-01-29T17:59:51.840Z,72.20
2023-01-29T18:02:54.482Z,72.00
2023-01-29T18:05:56.557Z,72.00
2023-01-29T18:08:58.625Z,72.40
2023-01-29T18:12:00.683Z,71.00
2023-01-29T18:15:02.759Z,71.10
2023-01-29T18:18:06.191Z,71.30
2023-01-29T18:21:08.245Z,71.70
2023-01-29T18:24:10.361Z,71.80
2023-01-29T18:27:13.383Z,72.10
2023-01-29T18:30:15.676Z,72.30
2023-01-29T18:33:18.166Z,72.20
2023-01-29T18:36:20.294Z,72.60
2023-01-29T18:39:22.432Z,72.70
2023-01-29T18:42:24.537Z,72.70
2023-01-29T18:45:29.880Z,72.90
2023-01-29T18:48:32.310Z,73.00
2023-01-29T18:51:34.869Z,73.00
2023-01-29T18:54:37.009Z,73.20
2023-01-29T18:58:28.026Z,73.40
2023-01-29T19:01:07.117Z,73.20
2023-01-29T19:04:09.288Z,73.40
2023-01-29T19:07:12.464Z,73.50
2023-01-29T19:10:16.985Z,73.30
2023-01-29T19:13:19.084Z,73.30
2023-01-29T19:16:21.182Z,73.30
2023-01-29T19:19:23.246Z,73.90
2023-01-29T19:22:25.371Z,73.90
2023-01-29T19:25:27.448Z,74.20
2023-01-29T19:28:29.507Z,74.30
2023-01-29T19:31:34.564Z,73.80
2023-01-29T19:34:36.919Z,73.40
2023-01-29T19:37:39.018Z,73.70
2023-01-29T19:40:41.419Z,73.60
2023-01-29T19:43:43.728Z,73.90
2023-01-29T19:46:46.935Z,74.40
2023-01-29T19:49:48.946Z,74.60
2023-01-29T19:52:52.586Z,75.10
2023-01-29T19:56:04.357Z,75.20
2023-01-29T19:59:07.505Z,75.60
2023-01-29T20:02:09.925Z,75.90
2023-01-29T20:05:13.220Z,76.20
2023-01-29T20:08:15.298Z,77.30
2023-01-29T20:11:20.410Z,77.40
2023-01-29T20:14:22.572Z,77.90
2023-01-29T20:17:24.724Z,78.10
2023-01-29T20:20:31.049Z,78.50
2023-01-29T20:23:38.124Z,78.70
2023-01-29T20:26:41.531Z,78.50
2023-01-29T20:29:45.374Z,78.50
2023-01-29T20:32:52.812Z,77.80
2023-01-29T20:35:59.486Z,77.70
2023-01-29T20:39:02.921Z,77.40
2023-01-29T20:42:05.097Z,77.60
2023-01-29T20:45:07.376Z,77.80
2023-01-29T20:48:09.524Z,77.70
2023-01-29T20:51:15.439Z,77.70
2023-01-29T20:54:17.588Z,77.70
2023-01-29T20:57:19.743Z,77.30
2023-01-29T21:00:22.041Z,77.70
2023-01-29T21:03:24.140Z,77.90
2023-01-29T21:06:26.497Z,77.90
2023-01-29T21:09:28.608Z,78.50
2023-01-29T21:12:30.793Z,78.80
2023-01-29T21:15:32.981Z,79.10
2023-01-29T21:22:51.153Z,80.10
2023-01-29T21:25:53.267Z,80.20
2023-01-29T21:28:55.479Z,80.60
2023-01-29T21:31:57.547Z,81.40
2023-01-29T21:34:59.498Z,82.00
2023-01-29T21:38:03.521Z,82.10
2023-01-29T21:41:08.964Z,82.70
2023-01-29T21:44:12.622Z,83.50
2023-01-29T21:47:15.558Z,83.90
2023-01-29T21:50:17.881Z,84.00
2023-01-29T21:53:20.357Z,83.40
2023-01-29T21:56:22.418Z,83.00
2023-01-29T21:59:24.481Z,83.60
2023-01-29T22:02:27.725Z,83.90
2023-01-29T22:05:29.774Z,84.60
2023-01-29T22:08:32.956Z,85.20
2023-01-29T22:11:35.085Z,86.30
2023-01-29T22:14:37.590Z,87.30
2023-01-29T22:17:41.414Z,87.00
2023-01-29T22:20:43.475Z,87.50
2023-01-29T22:23:49.540Z,87.80
2023-01-29T22:26:51.702Z,88.00
2023-01-29T22:29:53.779Z,88.40
2023-01-29T22:32:56.381Z,88.30
2023-01-29T22:35:58.630Z,88.40
2023-01-29T22:39:00.733Z,88.20
2023-01-29T22:42:02.797Z,87.80
2023-01-29T22:45:05.371Z,87.30
2023-01-29T22:48:08.288Z,87.20
2023-01-29T22:51:10.959Z,87.10
2023-01-29T22:54:15.051Z,86.60
2023-01-29T22:57:17.213Z,86.20
2023-01-29T23:00:19.996Z,86.00
2023-01-29T23:03:22.175Z,85.60
2023-01-29T23:06:24.595Z,84.90
2023-01-29T23:09:26.735Z,84.80
2023-01-29T23:12:29.148Z,84.30
2023-01-29T23:15:31.133Z,83.80
2023-01-29T23:18:33.809Z,83.30
2023-01-29T23:21:36.389Z,83.00
2023-01-29T23:24:38.416Z,82.80
2023-01-29T23:27:41.973Z,83.00
2023-01-29T23:30:45.271Z,82.90
2023-01-29T23:33:48.596Z,82.50
2023-01-29T23:36:50.628Z,82.80
2023-01-29T23:39:53.565Z,82.60
2023-01-29T23:42:56.465Z,82.50
2023-01-29T23:45:59.127Z,82.50
2023-01-29T23:49:01.443Z,82.60
2023-01-29T23:52:03.941Z,82.40
2023-01-29T23:55:06.548Z,82.50
2023-01-29T23:58:09.922Z,82.50
